ハリファックス の空港の天気 - METARとTAF

ハリファックス国際空港 ( CYHZ / YHZ ) - カナダ ノバスコシア州ハリファックス
飛行場実況気象(Metar)
観測時間05/28 20:00 ADT (05/28 23:00 UTC)
風向・風速南 6m/s 瞬間風速9m/s
視程200m
天気現象
全天を覆う雲 鉛直視程 60m
気温14℃
湿度100%
気圧1006.5hPa
METARCYHZ 282300Z 19011G18KT 1/8SM R23/1600V2200FT/U R14/2400V3000FT/N FG VV002 14/14 A2971 RMK FG8 SLP065 DENSITY ALT 700FT
過去の天気等 Google飛行場航空写真 Wunderground天気予報

過去48時間のMETAR

飛行場予報(TAF)
発表時間: 5/28 18:11 ADT (5/28 21:11 UTC)
予報対象時間: 28日18時 ADT ~ 29日15時 ADT
風向・風速南南西 6m/s 瞬間風速 11m/s
視程200m
天気現象弱い霧雨 霧
全天を覆う雲 鉛直視程 30m
28日18時 ADT ~ 29日3時 ADT に一時的に
視程1610m
天気現象弱い雨 もや
全天を覆う雲 雲底高度 120m
28日21時 ADT ~ 28日23時 ADT に徐々に
風向・風速南南西 5m/s 瞬間風速 10m/s
29日3時 ADT から
風向・風速北北西 4m/s
視程10km以上
天気現象弱いしゅう雨 もや
全天の4割程度の雲 雲底高度 150m
全天の8割程度の雲 雲底高度 460m
全天を覆う雲 雲底高度 1220m
29日3時 ADT から 確率 30% で
視程1610m
天気現象弱い霧雨 もや
全天を覆う雲 雲底高度 150m
29日9時 ADT から
風向・風速北北西 5m/s
視程10km以上
全天の8割程度の雲 雲底高度 610m
29日12時 ADT から
風向・風速北西 5m/s
視程10km以上
少しの雲 雲底高度 910m
TAF AMD CYHZ 282111Z 2821/2918 20012G22KT 1/8SM -DZ FG VV001
TEMPO 2821/2906 1SM -RA BR OVC004
BECMG 2900/2902 21010G20KT
FM290600 33008KT 6SM -SHRA BR SCT005 BKN015 OVC040
PROB30 2906/2911 1SM -DZ BR OVC005
FM291200 34010KT P6SM BKN020
FM291500 32010KT P6SM FEW030 RMK NXT FCST BY 290000Z